M I D A S
Marine Information and Data Acquisition System
Tripno 1073 of the Zeeleeuw from 2006-04-20 07:26:10 to 2006-04-20 11:05:24
Back to CruiseResearch ActivitiesStationsMapUnderway DataData graphs

EquipmentUnitsComment
TimeDGPSUTC
LatitudeDGPSDM.mWGS84
LongitudeDGPSDM.mWGS84
HeadingGyrodeg 
SOGDGPSknotsSpeed over ground
COGDGPSdegCourse over ground
DepthEcho soundermeters200 kHz
Missing or incorrect values are displayed as -999
Navigation data collected by the RV Zeeleeuw from 2006-04-20 07:25:49 to 2006-04-20 11:23:34
                                                                                    Next 1000 lines
Time Latitude Longitude Heading SOG COG Depth
2006-04-20 07:25:59 51°13.601 2°56.093 110.8 1.1 282 6.2
2006-04-20 07:26:04 51°13.602 2°56.09 110.5 1.4 289 6.3
2006-04-20 07:26:09 51°13.602 2°56.087 110.5 1.7 286 6.6
2006-04-20 07:26:14 51°13.604 2°56.082 111 2 291 4.8
2006-04-20 07:26:20 51°13.605 2°56.076 111.6 2.4 290 -999
2006-04-20 07:26:25 51°13.607 2°56.071 112.1 2.6 293 -999
2006-04-20 07:26:30 51°13.608 2°56.065 112.2 2.8 291 -999
2006-04-20 07:26:35 51°13.61 2°56.059 112.2 3.1 292 -999
2006-04-20 07:26:40 51°13.611 2°56.052 112.2 3.2 291 -999
2006-04-20 07:26:45 51°13.613 2°56.045 112 3.4 290 -999
2006-04-20 07:26:50 51°13.614 2°56.037 111.7 3.5 289 -999
2006-04-20 07:26:54 51°13.616 2°56.032 111.4 3.6 290 -999
2006-04-20 07:27:00 51°13.618 2°56.022 111 3.6 288 -999
2006-04-20 07:27:05 51°13.62 2°56.015 110.9 3.7 289 -999
2006-04-20 07:27:10 51°13.621 2°56.007 110.8 3.7 288 -999
2006-04-20 07:27:14 51°13.623 2°56.001 111.1 3.8 288 -999
2006-04-20 07:27:20 51°13.625 2°55.991 111.7 3.9 288 -999
2006-04-20 07:27:25 51°13.627 2°55.983 113.1 3.9 289 -999
2006-04-20 07:27:30 51°13.629 2°55.975 114.1 3.9 290 -999
2006-04-20 07:27:35 51°13.631 2°55.967 115.8 4 292 -999
2006-04-20 07:27:40 51°13.633 2°55.958 117.5 4.1 293 -999
2006-04-20 07:27:45 51°13.635 2°55.95 119 4.2 295 -999
2006-04-20 07:27:50 51°13.638 2°55.941 120.3 4.3 295 -999
2006-04-20 07:27:55 51°13.641 2°55.932 121.5 4.5 297 -999
2006-04-20 07:28:00 51°13.644 2°55.923 122.8 4.6 298 -999
2006-04-20 07:28:05 51°13.647 2°55.914 124.2 4.8 300 -999
2006-04-20 07:28:10 51°13.651 2°55.905 125.5 5 301 -999
2006-04-20 07:28:15 51°13.655 2°55.895 126.8 5.1 303 -999
2006-04-20 07:28:20 51°13.659 2°55.886 128 5.1 304 -999
2006-04-20 07:28:25 51°13.663 2°55.876 128.7 5.2 305 -999
2006-04-20 07:28:30 51°13.667 2°55.867 129.1 5.3 304 -999
2006-04-20 07:28:35 51°13.671 2°55.857 129.1 5.2 306 -999
2006-04-20 07:28:40 51°13.675 2°55.848 129.1 5 306 -999
2006-04-20 07:28:45 51°13.679 2°55.84 129.1 4.8 306 -999
2006-04-20 07:28:50 51°13.683 2°55.832 128.6 4.6 305 -999
2006-04-20 07:28:54 51°13.686 2°55.825 128 4.5 305 -999
2006-04-20 07:29:00 51°13.69 2°55.816 127.3 4.3 304 -999
2006-04-20 07:29:05 51°13.693 2°55.808 126.2 4.3 304 -999
2006-04-20 07:29:10 51°13.696 2°55.8 125 4.2 303 -999
2006-04-20 07:29:14 51°13.699 2°55.794 123.6 4.1 303 -999
2006-04-20 07:29:20 51°13.702 2°55.785 122 4 301 -999
2006-04-20 07:29:25 51°13.705 2°55.778 120.3 3.9 300 -999
2006-04-20 07:29:30 51°13.707 2°55.771 118.4 3.7 299 -999
2006-04-20 07:29:35 51°13.71 2°55.764 116.8 3.5 298 -999
2006-04-20 07:29:40 51°13.712 2°55.757 115.1 3.4 296 -999
2006-04-20 07:29:45 51°13.714 2°55.751 113.6 3.3 296 -999
2006-04-20 07:29:50 51°13.716 2°55.744 112.2 3.2 294 -999
2006-04-20 07:29:55 51°13.717 2°55.739 110.8 3 294 -999
2006-04-20 07:29:59 51°13.719 2°55.734 109.4 2.7 293 -999
2006-04-20 07:30:04 51°13.72 2°55.729 108.1 2.5 291 11.3
2006-04-20 07:30:09 51°13.721 2°55.724 105.9 2.2 290 5.5
2006-04-20 07:30:14 51°13.722 2°55.721 103.5 1.9 288 -999
2006-04-20 07:30:20 51°13.722 2°55.716 100.8 1.7 291 -999
2006-04-20 07:30:24 51°13.723 2°55.714 97.8 1.3 292 -999
2006-04-20 07:30:29 51°13.723 2°55.713 94.7 1 296 11.2
2006-04-20 07:30:34 51°13.724 2°55.712 91.6 0.6 319 11.2
2006-04-20 07:30:40 51°13.725 2°55.713 87.8 0.4 17 -999
2006-04-20 07:30:44 51°13.726 2°55.713 82.4 0.7 33 11.2
2006-04-20 07:30:49 51°13.727 2°55.715 75.4 1 47 -999
2006-04-20 07:30:54 51°13.728 2°55.717 68.2 1.2 48 -999
2006-04-20 07:30:59 51°13.729 2°55.719 62.5 1.2 42 -999
2006-04-20 07:31:04 51°13.73 2°55.72 58.8 1 41 -999
2006-04-20 07:31:10 51°13.731 2°55.721 55.8 0.8 32 11.1
2006-04-20 07:31:14 51°13.731 2°55.722 53.4 0.6 27 5
2006-04-20 07:31:20 51°13.732 2°55.722 50.5 0.3 9 -999
2006-04-20 07:31:25 51°13.732 2°55.721 48.2 0.2 311 -999
2006-04-20 07:31:30 51°13.732 2°55.72 45.7 0.4 251 -999
2006-04-20 07:31:34 51°13.731 2°55.719 44.2 0.7 239 11
2006-04-20 07:31:39 51°13.73 2°55.717 42.7 1 227 11
2006-04-20 07:31:45 51°13.728 2°55.714 41.3 1.4 225 11.1
2006-04-20 07:31:49 51°13.726 2°55.712 39.9 1.7 221 11.1
2006-04-20 07:31:54 51°13.724 2°55.709 38.5 1.8 223 -999
2006-04-20 07:32:00 51°13.722 2°55.707 37.2 1.5 221 -999
2006-04-20 07:32:05 51°13.722 2°55.705 36.3 1.2 228 -999
2006-04-20 07:32:10 51°13.721 2°55.704 34.6 0.6 228 -999
2006-04-20 07:32:15 51°13.722 2°55.703 31.3 0.4 295 -999
2006-04-20 07:32:20 51°13.723 2°55.704 26.7 0.7 4 -999
2006-04-20 07:32:25 51°13.725 2°55.704 20.6 1.3 1 -999
2006-04-20 07:32:30 51°13.727 2°55.704 13.7 1.7 2 -999
2006-04-20 07:32:35 51°13.731 2°55.703 6.4 2.2 355 -999
2006-04-20 07:32:40 51°13.734 2°55.702 358.7 2.7 350 -999
2006-04-20 07:32:45 51°13.739 2°55.7 351.4 3.1 342 -999
2006-04-20 07:32:50 51°13.744 2°55.698 346.7 3.6 340 -999
2006-04-20 07:32:54 51°13.748 2°55.695 342.2 3.9 337 10.9
2006-04-20 07:32:59 51°13.753 2°55.69 339.6 4.4 335 10.9
2006-04-20 07:33:04 51°13.759 2°55.685 337.2 4.6 333 10.8
2006-04-20 07:33:09 51°13.765 2°55.68 335.6 4.7 332 10.9
2006-04-20 07:33:14 51°13.77 2°55.675 334.5 4.7 331 10.9
2006-04-20 07:33:19 51°13.776 2°55.67 333.9 4.7 331 10.8
2006-04-20 07:33:24 51°13.782 2°55.665 333.8 4.7 331 10.9
2006-04-20 07:33:29 51°13.787 2°55.66 333.8 4.8 330 10.8
2006-04-20 07:33:34 51°13.793 2°55.655 333.8 4.8 331 10.9
2006-04-20 07:33:39 51°13.799 2°55.65 333.8 4.8 331 10.9
2006-04-20 07:33:44 51°13.805 2°55.645 334 4.8 331 10.8
2006-04-20 07:33:49 51°13.811 2°55.64 334.3 4.8 331 10.8
2006-04-20 07:33:54 51°13.816 2°55.635 334.7 4.8 332 10.8
2006-04-20 07:33:58 51°13.821 2°55.631 335.5 4.8 332 10.7
2006-04-20 07:34:04 51°13.828 2°55.625 336.2 4.8 333 -999
2006-04-20 07:34:09 51°13.834 2°55.62 336.8 4.8 333 -999
2006-04-20 07:34:14 51°13.84 2°55.615 337.2 4.7 334 -999
2006-04-20 07:34:19 51°13.846 2°55.611 337.5 4.7 334 10.6
2006-04-20 07:34:24 51°13.852 2°55.606 338 4.7 334 10.6
2006-04-20 07:34:30 51°13.859 2°55.601 338.5 4.7 335 10.6
2006-04-20 07:34:34 51°13.863 2°55.597 338.9 4.7 335 10.6
2006-04-20 07:34:39 51°13.869 2°55.593 339.2 4.7 335 10.6
2006-04-20 07:34:44 51°13.875 2°55.588 339.4 4.8 335 10.7
2006-04-20 07:34:49 51°13.881 2°55.584 339.5 4.8 335 10.6
2006-04-20 07:34:54 51°13.887 2°55.579 339.5 4.8 335 10.7
2006-04-20 07:34:59 51°13.893 2°55.575 339.6 4.8 336 10.6
2006-04-20 07:35:04 51°13.899 2°55.571 339.6 4.8 336 10.6
2006-04-20 07:35:09 51°13.906 2°55.566 339.7 4.9 336 10.7
2006-04-20 07:35:14 51°13.912 2°55.561 339.9 5.3 336 10.6
2006-04-20 07:35:19 51°13.92 2°55.556 340.3 5.6 336 10.6
2006-04-20 07:35:24 51°13.928 2°55.551 340.8 6 337 -999
2006-04-20 07:35:29 51°13.936 2°55.546 341.1 6.3 337 10.8
2006-04-20 07:35:34 51°13.945 2°55.54 341.1 6.7 337 10.7
2006-04-20 07:35:39 51°13.954 2°55.534 341.1 7 337 10.6
2006-04-20 07:35:44 51°13.963 2°55.528 341.6 7.2 338 10.6
2006-04-20 07:35:49 51°13.973 2°55.521 341.8 7.4 338 10.6
2006-04-20 07:35:54 51°13.982 2°55.515 341.8 7.6 338 10.6
2006-04-20 07:35:59 51°13.992 2°55.509 341.7 7.7 337 10.6
2006-04-20 07:36:04 51°14.002 2°55.502 341.7 7.8 338 10.6
2006-04-20 07:36:09 51°14.012 2°55.495 341.7 7.9 337 10.6
2006-04-20 07:36:14 51°14.022 2°55.489 341.4 8 337 10.6
2006-04-20 07:36:19 51°14.033 2°55.482 341.3 7.9 337 10.6
2006-04-20 07:36:24 51°14.043 2°55.475 341.1 8 337 10.7
2006-04-20 07:36:29 51°14.053 2°55.468 340.8 8 336 10.6
2006-04-20 07:36:34 51°14.063 2°55.46 340.9 8.1 337 10.6
2006-04-20 07:36:39 51°14.074 2°55.453 341.1 8.1 337 10.6
2006-04-20 07:36:44 51°14.084 2°55.446 340.6 8.2 336 10.6
2006-04-20 07:36:49 51°14.095 2°55.439 340.2 8.2 336 10.6
2006-04-20 07:36:54 51°14.105 2°55.431 340.1 8.4 336 10.5
2006-04-20 07:36:59 51°14.116 2°55.424 340 8.5 336 -999
2006-04-20 07:37:04 51°14.127 2°55.415 339 8.7 334 10.5
2006-04-20 07:37:09 51°14.138 2°55.406 337.5 8.8 333 10.5
2006-04-20 07:37:14 51°14.149 2°55.397 336.7 8.9 332 -999
2006-04-20 07:37:19 51°14.16 2°55.387 335.7 9 331 -999
2006-04-20 07:37:24 51°14.17 2°55.377 333.9 9 330 10.3
2006-04-20 07:37:29 51°14.181 2°55.366 332.7 9.1 328 10.4
2006-04-20 07:37:35 51°14.194 2°55.353 331.4 9.1 326 -999
2006-04-20 07:37:40 51°14.204 2°55.341 329.4 9.2 325 -999
2006-04-20 07:37:44 51°14.212 2°55.331 327.3 9.2 323 -999
2006-04-20 07:37:50 51°14.224 2°55.316 325.7 9.3 322 -999
2006-04-20 07:37:54 51°14.232 2°55.305 324.3 9.3 320 -999
2006-04-20 07:38:00 51°14.244 2°55.289 322.9 9.3 319 -999
2006-04-20 07:38:05 51°14.253 2°55.274 321.5 9.3 317 -999
2006-04-20 07:38:10 51°14.262 2°55.26 320 9.4 316 -999
2006-04-20 07:38:14 51°14.269 2°55.247 318.4 9.4 314 -999
2006-04-20 07:38:20 51°14.28 2°55.229 316.4 9.4 311 -999
2006-04-20 07:38:25 51°14.288 2°55.212 314.8 9.5 311 -999
2006-04-20 07:38:30 51°14.297 2°55.196 313.5 9.5 309 -999
2006-04-20 07:38:34 51°14.303 2°55.183 312.8 9.5 309 -999
2006-04-20 07:38:40 51°14.313 2°55.164 312.6 9.6 308 10.5
2006-04-20 07:38:45 51°14.322 2°55.147 312 9.6 308 10.5
2006-04-20 07:38:50 51°14.33 2°55.13 311.3 9.6 307 -999
2006-04-20 07:38:54 51°14.336 2°55.117 311.4 9.6 308 10.4
2006-04-20 07:38:58 51°14.343 2°55.103 312.3 9.7 309 10.5
2006-04-20 07:39:04 51°14.353 2°55.084 313.4 9.6 310 10.5
2006-04-20 07:39:09 51°14.362 2°55.068 314.7 9.6 312 10.7
2006-04-20 07:39:14 51°14.371 2°55.053 315.7 9.6 312 10.6
2006-04-20 07:39:19 51°14.381 2°55.038 317.3 9.6 314 10.7
2006-04-20 07:39:24 51°14.39 2°55.023 319.4 9.6 316 10.7
2006-04-20 07:39:30 51°14.402 2°55.006 321.6 9.6 318 10.6
2006-04-20 07:39:34 51°14.41 2°54.996 323.9 9.6 320 10.6
2006-04-20 07:39:39 51°14.421 2°54.983 326.2 9.6 322 10.5
2006-04-20 07:39:44 51°14.432 2°54.97 328.4 9.6 324 10.5
2006-04-20 07:39:49 51°14.443 2°54.958 330.8 9.6 326 10.5
2006-04-20 07:39:54 51°14.454 2°54.947 332.1 9.6 327 10.4
2006-04-20 07:39:59 51°14.465 2°54.935 333.4 9.6 328 10.4
2006-04-20 07:40:04 51°14.477 2°54.924 334.1 9.6 329 10.2
2006-04-20 07:40:09 51°14.488 2°54.914 334.8 9.6 329 10.1
2006-04-20 07:40:14 51°14.499 2°54.903 335.3 9.6 329 10
2006-04-20 07:40:19 51°14.511 2°54.892 335.3 9.6 329 10
2006-04-20 07:40:24 51°14.523 2°54.882 335.6 9.5 330 9.9
2006-04-20 07:40:29 51°14.534 2°54.871 335.9 9.6 330 9.9
2006-04-20 07:40:34 51°14.546 2°54.86 335.9 9.7 330 9.8
2006-04-20 07:40:39 51°14.557 2°54.849 335.5 9.9 329 9.8
2006-04-20 07:40:44 51°14.569 2°54.838 334.9 10 329 9.8
2006-04-20 07:40:49 51°14.582 2°54.826 334.5 10.2 329 9.9
2006-04-20 07:40:54 51°14.594 2°54.813 334.1 10.5 328 9.7
2006-04-20 07:40:59 51°14.607 2°54.801 333.2 10.8 328 9.7
2006-04-20 07:41:04 51°14.62 2°54.787 332.8 11.1 328 9.7
2006-04-20 07:41:09 51°14.633 2°54.773 332.4 11.5 327 9.7
2006-04-20 07:41:14 51°14.647 2°54.759 331.7 11.7 327 9.8
2006-04-20 07:41:19 51°14.661 2°54.745 331.5 11.9 326 9.7
2006-04-20 07:41:24 51°14.675 2°54.729 331.2 12.2 326 9.6
2006-04-20 07:41:29 51°14.689 2°54.714 330.8 12.4 326 9.8
2006-04-20 07:41:34 51°14.704 2°54.698 330.6 12.6 326 9.7
2006-04-20 07:41:39 51°14.718 2°54.682 330.5 12.8 326 9.7
2006-04-20 07:41:44 51°14.733 2°54.666 330.4 12.9 326 9.6
2006-04-20 07:41:49 51°14.748 2°54.651 330.5 13 326 9.6
2006-04-20 07:41:54 51°14.763 2°54.635 330.9 13.1 327 9.6
2006-04-20 07:41:59 51°14.778 2°54.619 331.6 13.1 328 9.6
2006-04-20 07:42:04 51°14.794 2°54.604 332.4 13.2 329 9.5
2006-04-20 07:42:09 51°14.81 2°54.59 333.4 13.3 330 9.5
2006-04-20 07:42:14 51°14.826 2°54.576 334.4 13.3 331 9.4
2006-04-20 07:42:19 51°14.843 2°54.561 335.2 13.3 331 9.5
2006-04-20 07:42:24 51°14.859 2°54.548 335.7 13.3 332 9.4
2006-04-20 07:42:29 51°14.875 2°54.534 335.9 13.4 331 9.5
2006-04-20 07:42:34 51°14.892 2°54.519 335.6 13.4 331 9.5
2006-04-20 07:42:39 51°14.908 2°54.505 335.2 13.4 331 9.5
2006-04-20 07:42:44 51°14.924 2°54.49 334.8 13.4 331 9.5
2006-04-20 07:42:49 51°14.94 2°54.475 333.7 13.4 329 9.4
2006-04-20 07:42:54 51°14.956 2°54.46 332.7 13.3 329 9.2
2006-04-20 07:42:59 51°14.971 2°54.444 332 13.3 328 9.1
2006-04-20 07:43:04 51°14.987 2°54.429 331.7 13.2 328 9
2006-04-20 07:43:09 51°15.002 2°54.413 331.5 13.2 328 8.9
2006-04-20 07:43:14 51°15.018 2°54.398 331.1 13.2 328 8.9
2006-04-20 07:43:19 51°15.033 2°54.382 331 13.2 328 8.8
2006-04-20 07:43:24 51°15.048 2°54.366 330.9 13.2 328 8.9
2006-04-20 07:43:29 51°15.064 2°54.351 330.9 13.3 328 8.8
2006-04-20 07:43:34 51°15.08 2°54.335 330.9 13.3 328 8.9
2006-04-20 07:43:39 51°15.095 2°54.32 331.6 13.3 329 8.9
2006-04-20 07:43:44 51°15.111 2°54.305 332.9 13.3 330 9
2006-04-20 07:43:49 51°15.128 2°54.291 333.9 13.4 331 9
2006-04-20 07:43:54 51°15.144 2°54.278 335 13.4 332 9
2006-04-20 07:43:59 51°15.161 2°54.265 336.2 13.4 333 9.1
2006-04-20 07:44:04 51°15.178 2°54.252 337.2 13.4 334 9.1
2006-04-20 07:44:08 51°15.191 2°54.242 337.6 13.4 334 9.2
2006-04-20 07:44:14 51°15.212 2°54.226 337.8 13.4 334 9.2
2006-04-20 07:44:19 51°15.228 2°54.212 337.9 13.4 334 9.2
2006-04-20 07:44:24 51°15.245 2°54.198 337.5 13.5 332 9.3
2006-04-20 07:44:29 51°15.261 2°54.184 336.7 13.4 332 9.3
2006-04-20 07:44:34 51°15.277 2°54.169 335.8 13.4 330 9.4
2006-04-20 07:44:39 51°15.293 2°54.153 334.4 13.4 329 9.4
2006-04-20 07:44:44 51°15.308 2°54.137 333.1 13.4 327 9.5
2006-04-20 07:44:49 51°15.324 2°54.121 332.4 13.4 328 9.5
2006-04-20 07:44:54 51°15.339 2°54.105 332.2 13.4 326 9.6
2006-04-20 07:44:59 51°15.355 2°54.089 332.3 13.4 328 9.7
2006-04-20 07:45:04 51°15.37 2°54.074 332.8 13.4 328 9.8
2006-04-20 07:45:09 51°15.387 2°54.059 334.1 13.3 330 9.9
2006-04-20 07:45:14 51°15.402 2°54.045 335.3 13.3 330 10
2006-04-20 07:45:19 51°15.418 2°54.031 336.3 13.3 331 10
2006-04-20 07:45:24 51°15.435 2°54.017 336.9 13.2 331 10
2006-04-20 07:45:29 51°15.451 2°54.003 337.4 13.2 332 10.2
2006-04-20 07:45:34 51°15.467 2°53.989 337.7 13.1 332 10.2
2006-04-20 07:45:39 51°15.483 2°53.976 337.8 13.1 332 10.3
2006-04-20 07:45:44 51°15.498 2°53.961 337.3 13 331 10.3
2006-04-20 07:45:49 51°15.514 2°53.947 336.7 13.1 330 10.4
2006-04-20 07:45:54 51°15.53 2°53.932 335.8 13 329 10.4
2006-04-20 07:45:59 51°15.546 2°53.917 335.3 13 329 10.5
2006-04-20 07:46:04 51°15.561 2°53.902 334.9 13.1 329 10.5
2006-04-20 07:46:09 51°15.577 2°53.888 334.9 13.1 329 10.5
2006-04-20 07:46:14 51°15.592 2°53.873 335.3 13.1 330 10.6
2006-04-20 07:46:19 51°15.608 2°53.859 336 13.1 331 10.6
2006-04-20 07:46:24 51°15.624 2°53.846 337 13 332 10.6
2006-04-20 07:46:29 51°15.64 2°53.832 337.6 13.1 332 10.6
2006-04-20 07:46:34 51°15.656 2°53.819 338.2 13.1 333 10.6
2006-04-20 07:46:39 51°15.672 2°53.806 338.8 13.1 333 10.7
2006-04-20 07:46:44 51°15.688 2°53.793 339.2 13.1 334 10.8
2006-04-20 07:46:49 51°15.705 2°53.78 339.5 13.1 334 10.8
2006-04-20 07:46:54 51°15.721 2°53.767 339.5 13.1 334 10.8
2006-04-20 07:46:59 51°15.737 2°53.754 339.1 13.1 333 10.9
2006-04-20 07:47:04 51°15.753 2°53.74 338.4 13.1 332 11
2006-04-20 07:47:09 51°15.77 2°53.727 337.9 13.2 332 11.1
2006-04-20 07:47:14 51°15.786 2°53.713 337.2 13.2 331 11.1
2006-04-20 07:47:19 51°15.802 2°53.7 336.6 13.2 331 11.1
2006-04-20 07:47:24 51°15.817 2°53.685 336.1 13.2 331 11.1
2006-04-20 07:47:29 51°15.834 2°53.671 336 13.2 331 11.2
2006-04-20 07:47:34 51°15.85 2°53.657 336.1 13.2 332 11.3
2006-04-20 07:47:39 51°15.866 2°53.644 336.6 13.1 333 11.2
2006-04-20 07:47:44 51°15.882 2°53.631 337.3 13.1 333 11.3
2006-04-20 07:47:49 51°15.898 2°53.618 338 13.1 333 11.3
2006-04-20 07:47:54 51°15.915 2°53.604 338.2 13.1 333 11.3
2006-04-20 07:47:59 51°15.931 2°53.591 338.3 13.1 333 11.5
2006-04-20 07:48:04 51°15.947 2°53.579 338.7 13.1 334 11.5
2006-04-20 07:48:09 51°15.963 2°53.566 338.5 13.1 334 11.5
2006-04-20 07:48:14 51°15.979 2°53.553 338.4 13 334 11.5
2006-04-20 07:48:19 51°15.996 2°53.54 338.4 13 334 11.6
2006-04-20 07:48:24 51°16.012 2°53.526 338.2 13.1 333 11.7
2006-04-20 07:48:29 51°16.027 2°53.514 337.9 13 333 11.6
2006-04-20 07:48:34 51°16.043 2°53.5 337.4 13 332 11.6
2006-04-20 07:48:39 51°16.059 2°53.486 336.7 13 332 11.6
2006-04-20 07:48:44 51°16.075 2°53.472 336 13 331 11.7
2006-04-20 07:48:49 51°16.09 2°53.458 335.8 12.9 331 11.7
2006-04-20 07:48:54 51°16.106 2°53.444 335.5 13 330 11.8
2006-04-20 07:48:59 51°16.122 2°53.429 335.3 13 330 11.9
2006-04-20 07:49:04 51°16.137 2°53.415 334.9 13 330 11.8
2006-04-20 07:49:09 51°16.153 2°53.4 334.8 13.1 329 11.9
2006-04-20 07:49:14 51°16.169 2°53.385 334.5 13.1 330 11.9
2006-04-20 07:49:19 51°16.185 2°53.371 334.9 13.1 330 11.9
2006-04-20 07:49:24 51°16.2 2°53.357 335.5 13.1 331 11.9
2006-04-20 07:49:29 51°16.217 2°53.343 336.4 13.1 332 11.9
2006-04-20 07:49:34 51°16.233 2°53.33 337 13.1 332 12
2006-04-20 07:49:39 51°16.249 2°53.317 337.7 13.2 333 12
2006-04-20 07:49:44 51°16.265 2°53.304 338.3 13.2 333 12
2006-04-20 07:49:49 51°16.282 2°53.291 338.7 13.2 334 12.1
2006-04-20 07:49:54 51°16.298 2°53.278 339.1 13.2 334 12
2006-04-20 07:49:59 51°16.314 2°53.265 338.9 13.2 334 12
2006-04-20 07:50:04 51°16.331 2°53.252 338.9 13.1 334 12
2006-04-20 07:50:09 51°16.347 2°53.239 338.6 13.2 333 12.1
2006-04-20 07:50:14 51°16.363 2°53.226 338.2 13.2 333 12.1
2006-04-20 07:50:19 51°16.379 2°53.212 337.5 13.2 332 12
2006-04-20 07:50:24 51°16.395 2°53.198 336.7 13.2 332 12.1
2006-04-20 07:50:29 51°16.412 2°53.184 336.4 13.2 332 12.1
2006-04-20 07:50:34 51°16.428 2°53.17 336.3 13.2 332 12.2
2006-04-20 07:50:39 51°16.444 2°53.157 336.4 13.3 332 12.1
2006-04-20 07:50:44 51°16.46 2°53.143 336.3 13.2 332 12
2006-04-20 07:50:49 51°16.476 2°53.129 336.2 13.2 332 12
2006-04-20 07:50:54 51°16.492 2°53.115 336.2 13.2 332 12
2006-04-20 07:50:59 51°16.508 2°53.101 336.5 13.2 332 12
2006-04-20 07:51:04 51°16.524 2°53.088 336.9 13.2 332 12
2006-04-20 07:51:09 51°16.541 2°53.074 337.7 13.2 333 11.9
2006-04-20 07:51:14 51°16.557 2°53.061 338.3 13.2 334 11.8
2006-04-20 07:51:19 51°16.574 2°53.049 338.7 13.3 335 11.8
2006-04-20 07:51:24 51°16.59 2°53.036 338.8 13.3 334 11.9
2006-04-20 07:51:29 51°16.607 2°53.023 338.9 13.2 334 11.7
2006-04-20 07:51:34 51°16.623 2°53.01 338.9 13.3 334 11.7
2006-04-20 07:51:38 51°16.636 2°53 338.8 13.2 334 11.7
2006-04-20 07:51:44 51°16.656 2°52.983 338.6 13.3 333 11.6
2006-04-20 07:51:49 51°16.672 2°52.97 337.9 13.3 333 11.7
2006-04-20 07:51:54 51°16.688 2°52.956 337.3 13.3 332 11.4
2006-04-20 07:51:59 51°16.705 2°52.942 336.7 13.2 332 11.4
2006-04-20 07:52:04 51°16.721 2°52.928 336.2 13.3 332 11.2
2006-04-20 07:52:09 51°16.737 2°52.915 336 13.2 332 11
2006-04-20 07:52:14 51°16.753 2°52.901 335.7 13.2 332 10.8
2006-04-20 07:52:19 51°16.769 2°52.887 335.8 13.2 332 10.5
2006-04-20 07:52:24 51°16.785 2°52.873 336.3 13.1 333 10.1
2006-04-20 07:52:29 51°16.801 2°52.861 337.3 13.1 334 9.7
2006-04-20 07:52:34 51°16.817 2°52.848 338.6 13 334 9.6
2006-04-20 07:52:39 51°16.834 2°52.836 339.6 13 335 9.6
2006-04-20 07:52:44 51°16.85 2°52.824 340.1 13 335 9.5
2006-04-20 07:52:49 51°16.866 2°52.812 340.4 13 335 9.4
2006-04-20 07:52:54 51°16.883 2°52.8 340.7 13 336 9.4
2006-04-20 07:52:59 51°16.899 2°52.789 340.8 13 336 9.4
2006-04-20 07:53:04 51°16.916 2°52.778 341.5 13 337 9.5
2006-04-20 07:53:09 51°16.933 2°52.769 343.7 13 341 9.6
2006-04-20 07:53:14 51°16.951 2°52.76 345.6 13.1 342 9.8
2006-04-20 07:53:19 51°16.968 2°52.752 348 13.1 344 9.8
2006-04-20 07:53:24 51°16.986 2°52.744 349.5 13.1 344 9.9
2006-04-20 07:53:29 51°17.004 2°52.737 349.9 13.2 346 10
2006-04-20 07:53:34 51°17.021 2°52.73 350.2 13.2 345 10.1
2006-04-20 07:53:39 51°17.039 2°52.725 352.2 13.2 349 10.2
2006-04-20 07:53:44 51°17.057 2°52.72 353.4 13.2 350 10.3
2006-04-20 07:53:49 51°17.076 2°52.715 355.6 13.2 352 10.4
2006-04-20 07:53:54 51°17.093 2°52.712 357 13.2 353 10.2
2006-04-20 07:53:59 51°17.112 2°52.708 357.6 13.2 352 10
2006-04-20 07:54:04 51°17.13 2°52.706 358.2 13.2 354 9.8
2006-04-20 07:54:09 51°17.148 2°52.702 358.7 13.2 354 10.1
2006-04-20 07:54:14 51°17.166 2°52.7 -999 13.2 356 10.5
2006-04-20 07:54:19 51°17.184 2°52.698 0.6 13.1 355 9.8
2006-04-20 07:54:24 51°17.202 2°52.696 1.1 13.1 356 9.9
2006-04-20 07:54:29 51°17.22 2°52.693 0.7 13.1 354 9.9
2006-04-20 07:54:34 51°17.238 2°52.691 0.3 13.1 355 9.9
2006-04-20 07:54:39 51°17.256 2°52.687 359.7 13.2 354 10.1
2006-04-20 07:54:44 51°17.275 2°52.684 359.2 13.2 353 10
2006-04-20 07:54:49 51°17.293 2°52.68 358.5 13.2 353 10.1
2006-04-20 07:54:54 51°17.311 2°52.676 357.4 13.2 351 10.1
2006-04-20 07:54:59 51°17.328 2°52.67 355.5 13.2 350 10
2006-04-20 07:55:04 51°17.347 2°52.665 354.8 13.2 350 10.2
2006-04-20 07:55:09 51°17.364 2°52.66 354.6 13.2 349 10
2006-04-20 07:55:14 51°17.383 2°52.655 355.6 13.2 351 10.1
2006-04-20 07:55:19 51°17.4 2°52.65 355.5 13.2 350 10.3
2006-04-20 07:55:24 51°17.419 2°52.646 356.2 13.2 352 10.1
2006-04-20 07:55:29 51°17.436 2°52.643 358 13.1 353 10.2
2006-04-20 07:55:34 51°17.455 2°52.638 357.6 13.1 351 10.4
2006-04-20 07:55:39 51°17.473 2°52.633 356.4 13.1 351 10.1
2006-04-20 07:55:44 51°17.491 2°52.628 355.9 13.1 350 10.5
2006-04-20 07:55:49 51°17.509 2°52.623 356 13.1 351 10.4
2006-04-20 07:55:54 51°17.526 2°52.619 356.3 13.1 350 10.3
2006-04-20 07:55:59 51°17.544 2°52.614 356.4 13.1 351 10.2
2006-04-20 07:56:04 51°17.562 2°52.609 355.6 13.1 350 10.8
2006-04-20 07:56:09 51°17.58 2°52.605 356.3 13.1 352 10.6
2006-04-20 07:56:14 51°17.598 2°52.602 358.8 13.1 354 10.4
2006-04-20 07:56:19 51°17.616 2°52.6 359.9 13.1 355 10.5
2006-04-20 07:56:24 51°17.634 2°52.597 -999 13.1 355 10.5
2006-04-20 07:56:29 51°17.653 2°52.596 1.4 13 356 10.5
2006-04-20 07:56:34 51°17.671 2°52.595 2.2 13.1 357 10.5
2006-04-20 07:56:39 51°17.689 2°52.594 3.8 13 359 10.5
2006-04-20 07:56:44 51°17.707 2°52.593 4 13.1 357 10.5
2006-04-20 07:56:48 51°17.721 2°52.591 3 13 356 10.4
2006-04-20 07:56:54 51°17.743 2°52.588 2.1 13.1 356 10.6
2006-04-20 07:56:59 51°17.761 2°52.584 0.1 13.1 352 10.4
2006-04-20 07:57:04 51°17.779 2°52.581 358.7 13 353 10.5
2006-04-20 07:57:09 51°17.797 2°52.576 358.4 13 352 10.4
2006-04-20 07:57:14 51°17.815 2°52.573 358.5 13.1 354 10.4
2006-04-20 07:57:19 51°17.833 2°52.57 359.2 13.1 353 10.5
2006-04-20 07:57:24 51°17.851 2°52.568 359.8 13.1 355 10.6
2006-04-20 07:57:29 51°17.869 2°52.567 1.8 13.1 357 10.6
2006-04-20 07:57:34 51°17.887 2°52.566 3 13.1 359 10.6
2006-04-20 07:57:39 51°17.905 2°52.567 5.2 13.1 -999 10.6
2006-04-20 07:57:44 51°17.923 2°52.569 7.4 13 3 10.7
2006-04-20 07:57:49 51°17.941 2°52.572 10.8 13 6 10.7
2006-04-20 07:57:54 51°17.959 2°52.576 11.9 13 6 10.7
2006-04-20 07:57:59 51°17.977 2°52.58 13.2 13 8 10.7
2006-04-20 07:58:04 51°17.995 2°52.584 14.4 13 8 10.7
2006-04-20 07:58:09 51°18.013 2°52.589 14.8 13 10 10.8
2006-04-20 07:58:14 51°18.031 2°52.594 16 13 10 10.8
2006-04-20 07:58:19 51°18.048 2°52.6 16.9 13 11 10.8
2006-04-20 07:58:24 51°18.066 2°52.605 17.2 13 10 10.9
2006-04-20 07:58:29 51°18.083 2°52.609 15.9 13 9 10.8
2006-04-20 07:58:34 51°18.101 2°52.613 15 12.9 8 10.8
2006-04-20 07:58:39 51°18.119 2°52.619 15.2 13 11 10.9
2006-04-20 07:58:44 51°18.137 2°52.625 16.2 12.9 12 10.9
2006-04-20 07:58:49 51°18.154 2°52.633 19.6 12.8 16 10.9
2006-04-20 07:58:54 51°18.171 2°52.642 22 12.9 17 10.9
2006-04-20 07:58:59 51°18.188 2°52.652 24.6 12.8 20 11
2006-04-20 07:59:04 51°18.204 2°52.662 26.8 12.8 22 11.1
2006-04-20 07:59:09 51°18.22 2°52.673 28 12.9 22 11.1
2006-04-20 07:59:14 51°18.237 2°52.685 28.5 12.8 23 11.1
2006-04-20 07:59:19 51°18.252 2°52.698 30.3 12.7 28 11.2
2006-04-20 07:59:24 51°18.267 2°52.713 34.5 12.7 31 11.1
2006-04-20 07:59:29 51°18.282 2°52.73 38.5 12.7 36 11.1
2006-04-20 07:59:34 51°18.295 2°52.747 42 12.7 38 11.1
2006-04-20 07:59:39 51°18.309 2°52.765 44.9 12.6 40 11.2
2006-04-20 07:59:44 51°18.322 2°52.784 46.4 12.7 41 11.3
2006-04-20 07:59:49 51°18.335 2°52.803 48.2 12.8 43 11.3
2006-04-20 07:59:54 51°18.347 2°52.823 49.2 12.8 44 11.3
2006-04-20 07:59:59 51°18.359 2°52.844 51.2 12.7 47 11.4
2006-04-20 08:00:04 51°18.37 2°52.865 54.2 12.6 50 11.3
2006-04-20 08:00:10 51°18.383 2°52.891 55.9 12.6 51 11.3
2006-04-20 08:00:14 51°18.392 2°52.909 56.6 12.6 52 11.4
2006-04-20 08:00:19 51°18.403 2°52.93 57 12.7 51 11.4
2006-04-20 08:00:24 51°18.414 2°52.952 57 12.7 52 11.4
2006-04-20 08:00:29 51°18.424 2°52.974 57.6 12.6 52 11.4
2006-04-20 08:00:34 51°18.435 2°52.997 58.5 12.6 54 11.4
2006-04-20 08:00:39 51°18.445 2°53.02 58.6 12.7 54 11.4
2006-04-20 08:00:44 51°18.455 2°53.043 59.9 12.7 57 11.4
2006-04-20 08:00:49 51°18.463 2°53.068 62.6 12.7 59 11.4
2006-04-20 08:00:54 51°18.471 2°53.093 65.5 12.6 62 11.4
2006-04-20 08:01:00 51°18.481 2°53.123 67.5 12.6 63 11.4
2006-04-20 08:01:04 51°18.487 2°53.142 67.9 12.5 63 11.4
2006-04-20 08:01:09 51°18.494 2°53.168 69.2 12.4 67 11.4
2006-04-20 08:01:14 51°18.5 2°53.193 71.1 12.5 67 11.4
2006-04-20 08:01:19 51°18.507 2°53.219 72.1 12.5 69 11.4
2006-04-20 08:01:24 51°18.512 2°53.245 73.7 12.5 70 11.4
2006-04-20 08:01:29 51°18.518 2°53.271 74.4 12.4 72 11.4
2006-04-20 08:01:34 51°18.524 2°53.297 75.1 12.4 70 11.4
2006-04-20 08:01:39 51°18.529 2°53.323 75.3 12.5 71 11.4
2006-04-20 08:01:44 51°18.535 2°53.349 75.4 12.6 70 11.4
2006-04-20 08:01:49 51°18.541 2°53.375 74.3 12.5 69 11.4
2006-04-20 08:01:54 51°18.548 2°53.4 73.3 12.5 67 11.4
2006-04-20 08:01:59 51°18.555 2°53.426 72.1 12.5 68 11.4
2006-04-20 08:02:04 51°18.562 2°53.451 70.8 12.5 64 11.4
2006-04-20 08:02:09 51°18.57 2°53.476 69.4 12.5 64 11.4
2006-04-20 08:02:14 51°18.578 2°53.5 68.8 12.5 63 11.4
2006-04-20 08:02:19 51°18.586 2°53.525 67.5 12.5 63 11.4
2006-04-20 08:02:24 51°18.594 2°53.55 67.5 12.6 64 11.4
2006-04-20 08:02:29 51°18.602 2°53.574 67.6 12.6 63 11.4
2006-04-20 08:02:34 51°18.609 2°53.599 67.8 12.5 64 11.4
2006-04-20 08:02:39 51°18.617 2°53.624 68.2 12.5 63 11.5
2006-04-20 08:02:44 51°18.625 2°53.649 68.6 12.5 64 11.5
2006-04-20 08:02:49 51°18.632 2°53.674 68.8 12.5 65 11.4
2006-04-20 08:02:54 51°18.639 2°53.699 69.4 12.5 65 11.5
2006-04-20 08:02:59 51°18.646 2°53.724 69.8 12.5 65 11.4
2006-04-20 08:03:04 51°18.653 2°53.75 70.3 12.5 66 11.3
2006-04-20 08:03:09 51°18.661 2°53.775 70.5 12.5 65 11.5
2006-04-20 08:03:14 51°18.668 2°53.8 70 12.5 65 11.4
2006-04-20 08:03:19 51°18.675 2°53.825 69.5 12.5 64 11.5
2006-04-20 08:03:24 51°18.683 2°53.85 69.1 12.5 64 11.4
2006-04-20 08:03:29 51°18.691 2°53.874 68.5 12.5 63 11.4
2006-04-20 08:03:34 51°18.699 2°53.899 67.8 12.5 63 11.4
2006-04-20 08:03:39 51°18.707 2°53.923 67.7 12.5 64 11.3
2006-04-20 08:03:44 51°18.715 2°53.948 68.4 12.6 64 11.4
2006-04-20 08:03:49 51°18.722 2°53.973 68.9 12.6 65 11.5
2006-04-20 08:03:54 51°18.73 2°53.998 68.8 12.5 64 11.4
2006-04-20 08:03:59 51°18.737 2°54.024 68.9 12.5 64 11.3
2006-04-20 08:04:04 51°18.745 2°54.049 69.2 12.6 65 11.4
2006-04-20 08:04:10 51°18.753 2°54.079 69.4 12.5 64 11.5
2006-04-20 08:04:14 51°18.759 2°54.099 69.7 12.5 66 11.4
2006-04-20 08:04:19 51°18.767 2°54.124 70 12.5 65 11.5
2006-04-20 08:04:24 51°18.774 2°54.149 69.5 12.5 65 11.4
2006-04-20 08:04:29 51°18.781 2°54.175 69.9 12.5 67 11.4
2006-04-20 08:04:34 51°18.788 2°54.2 70.5 12.6 64 11.4
2006-04-20 08:04:39 51°18.795 2°54.225 69.9 12.6 66 11.4
2006-04-20 08:04:44 51°18.803 2°54.25 70 12.5 64 11.3
2006-04-20 08:04:49 51°18.81 2°54.275 69.8 12.5 65 11.4
2006-04-20 08:04:54 51°18.818 2°54.3 68.9 12.5 63 11.4
2006-04-20 08:04:59 51°18.825 2°54.325 68.2 12.5 64 11.4
2006-04-20 08:05:04 51°18.833 2°54.35 68.5 12.6 64 11.5
2006-04-20 08:05:09 51°18.841 2°54.375 68.7 12.6 64 11.4
2006-04-20 08:05:14 51°18.848 2°54.4 68.8 12.6 65 11.5
2006-04-20 08:05:19 51°18.856 2°54.425 68.9 12.5 64 11.4
2006-04-20 08:05:24 51°18.863 2°54.45 69.6 12.4 66 11.5
2006-04-20 08:05:29 51°18.871 2°54.475 69.6 12.5 64 11.4
2006-04-20 08:05:34 51°18.878 2°54.5 69.5 12.5 65 11.4
2006-04-20 08:05:40 51°18.887 2°54.53 69 12.5 64 11.5
2006-04-20 08:05:44 51°18.894 2°54.549 69 12.5 63 11.4
2006-04-20 08:05:49 51°18.902 2°54.574 68.1 12.4 63 11.4
2006-04-20 08:05:54 51°18.909 2°54.599 68.2 12.4 64 11.4
2006-04-20 08:05:59 51°18.916 2°54.624 68.9 12.5 65 11.4
2006-04-20 08:06:04 51°18.924 2°54.649 69.8 12.5 66 11.5
2006-04-20 08:06:09 51°18.931 2°54.674 69.9 12.5 65 11.4
2006-04-20 08:06:14 51°18.938 2°54.699 69.9 12.5 65 11.4
2006-04-20 08:06:19 51°18.946 2°54.724 69.5 12.4 64 11.5
2006-04-20 08:06:24 51°18.954 2°54.748 68.5 12.4 63 11.3
2006-04-20 08:06:29 51°18.961 2°54.773 68 12.4 63 11.4
2006-04-20 08:06:34 51°18.969 2°54.798 67.9 12.5 63 11.4
2006-04-20 08:06:39 51°18.977 2°54.822 68.3 12.5 64 11.4
2006-04-20 08:06:44 51°18.984 2°54.847 68.9 12.4 65 11.4
2006-04-20 08:06:49 51°18.991 2°54.872 69.8 12.4 65 11.4
2006-04-20 08:06:54 51°18.999 2°54.897 70.1 12.5 66 11.4
2006-04-20 08:06:59 51°19.005 2°54.923 70.4 12.4 66 11.4
2006-04-20 08:07:04 51°19.013 2°54.948 70.4 12.5 65 11.4
2006-04-20 08:07:09 51°19.02 2°54.973 70.2 12.5 65 11.4
2006-04-20 08:07:14 51°19.027 2°54.998 69.6 12.5 65 11.3
2006-04-20 08:07:19 51°19.034 2°55.023 69.4 12.4 65 11.4
2006-04-20 08:07:24 51°19.042 2°55.047 68.8 12.4 64 11.4
2006-04-20 08:07:29 51°19.05 2°55.071 68.1 12.4 63 11.4
2006-04-20 08:07:34 51°19.057 2°55.096 67.9 12.4 64 11.3
2006-04-20 08:07:39 51°19.065 2°55.12 67.9 12.5 62 11.3
2006-04-20 08:07:44 51°19.073 2°55.145 67.3 12.4 63 11.4
2006-04-20 08:07:49 51°19.081 2°55.169 67.1 12.3 62 11.4
2006-04-20 08:07:54 51°19.089 2°55.193 67 12.3 63 11.4
2006-04-20 08:07:59 51°19.097 2°55.218 67.4 12.3 63 11.4
2006-04-20 08:08:04 51°19.104 2°55.243 68.2 12.4 64 11.4
2006-04-20 08:08:09 51°19.112 2°55.267 68.4 12.4 64 11.3
2006-04-20 08:08:14 51°19.119 2°55.293 69.5 12.4 67 11.3
2006-04-20 08:08:19 51°19.126 2°55.317 69.8 12.4 64 11.3
2006-04-20 08:08:25 51°19.135 2°55.347 69.8 12.4 66 11.5
2006-04-20 08:08:29 51°19.14 2°55.368 70.2 12.4 66 11.3
2006-04-20 08:08:34 51°19.147 2°55.393 70.6 12.4 66 11.3
2006-04-20 08:08:39 51°19.154 2°55.418 70.7 12.5 67 11.3
2006-04-20 08:08:44 51°19.161 2°55.443 70.3 12.4 65 11.3
2006-04-20 08:08:49 51°19.168 2°55.468 69.8 12.4 65 11.3
2006-04-20 08:08:54 51°19.176 2°55.493 69.3 12.4 64 11.3
2006-04-20 08:08:59 51°19.183 2°55.517 68.9 12.5 65 11.3
2006-04-20 08:09:04 51°19.191 2°55.542 68.9 12.5 64 11.3
2006-04-20 08:09:09 51°19.198 2°55.567 68.8 12.5 66 11.2
2006-04-20 08:09:14 51°19.206 2°55.592 69 12.5 64 11.2
2006-04-20 08:09:19 51°19.213 2°55.617 69.2 12.4 65 11.2
2006-04-20 08:09:24 51°19.22 2°55.642 69.8 12.4 66 11.1
2006-04-20 08:09:29 51°19.227 2°55.667 70.2 12.4 65 11.1
2006-04-20 08:09:34 51°19.234 2°55.692 69.4 12.4 65 11.1
2006-04-20 08:09:39 51°19.242 2°55.717 69.6 12.5 66 11.1
2006-04-20 08:09:44 51°19.249 2°55.743 69.6 12.5 65 11
2006-04-20 08:09:49 51°19.256 2°55.767 69.8 12.4 65 11.1
2006-04-20 08:09:54 51°19.263 2°55.792 70.1 12.4 65 11.1
2006-04-20 08:09:59 51°19.271 2°55.817 69.1 12.3 64 11
2006-04-20 08:10:04 51°19.278 2°55.842 68.9 12.3 65 11
2006-04-20 08:10:09 51°19.286 2°55.867 69 12.5 64 11
2006-04-20 08:10:14 51°19.293 2°55.892 69.4 12.5 66 11
2006-04-20 08:10:19 51°19.3 2°55.917 69.5 12.4 64 11
2006-04-20 08:10:24 51°19.307 2°55.941 69.8 12.4 66 11
2006-04-20 08:10:29 51°19.314 2°55.967 70.4 12.4 66 11
2006-04-20 08:10:34 51°19.322 2°55.992 70.4 12.4 66 11
2006-04-20 08:10:39 51°19.329 2°56.016 70 12.4 65 10.9
2006-04-20 08:10:44 51°19.337 2°56.041 69.5 12.4 64 10.9
2006-04-20 08:10:50 51°19.346 2°56.071 68.3 12.4 63 10.9
2006-04-20 08:10:54 51°19.352 2°56.09 68.2 12.4 63 10.9
2006-04-20 08:10:59 51°19.359 2°56.115 68.8 12.4 65 10.9
2006-04-20 08:11:04 51°19.366 2°56.14 70.2 12.4 66 10.9
2006-04-20 08:11:09 51°19.372 2°56.165 71.1 12.3 67 10.9
2006-04-20 08:11:14 51°19.379 2°56.19 71.4 12.3 67 10.9
2006-04-20 08:11:19 51°19.386 2°56.216 71 12.3 67 10.9
2006-04-20 08:11:24 51°19.393 2°56.241 71 12.3 66 10.9
2006-04-20 08:11:29 51°19.4 2°56.266 70.8 12.4 66 11
2006-04-20 08:11:34 51°19.407 2°56.29 70.1 12.3 65 11
2006-04-20 08:11:39 51°19.414 2°56.315 69.8 12.3 65 10.9
2006-04-20 08:11:44 51°19.422 2°56.34 69.5 12.4 64 10.8
2006-04-20 08:11:49 51°19.43 2°56.364 68.1 12.3 63 10.8
2006-04-20 08:11:54 51°19.438 2°56.388 67.7 12.3 62 10.9
2006-04-20 08:11:59 51°19.446 2°56.412 67.2 12.4 62 10.8
2006-04-20 08:12:04 51°19.454 2°56.436 66 12.3 60 10.7
2006-04-20 08:12:09 51°19.462 2°56.46 66.1 12.3 62 10.8
2006-04-20 08:12:14 51°19.47 2°56.484 66.1 12.2 61 10.9
2006-04-20 08:12:19 51°19.478 2°56.508 67 12.2 63 10.8
2006-04-20 08:12:24 51°19.485 2°56.533 67.9 12.3 64 11.2
2006-04-20 08:12:29 51°19.492 2°56.558 70 12.4 66 10.8
2006-04-20 08:12:34 51°19.499 2°56.583 70.4 12.4 65 10.8
2006-04-20 08:12:39 51°19.506 2°56.608 69.9 12.3 65 10.8
2006-04-20 08:12:44 51°19.514 2°56.632 69.4 12.3 64 10.8
2006-04-20 08:12:49 51°19.521 2°56.657 68.8 12.4 65 10.8
2006-04-20 08:12:54 51°19.529 2°56.682 68.6 12.4 64 10.9
2006-04-20 08:12:59 51°19.536 2°56.706 69.1 12.4 65 10.9
2006-04-20 08:13:04 51°19.543 2°56.731 69.6 12.4 66 10.9
2006-04-20 08:13:09 51°19.55 2°56.757 70 12.4 66 10.7
2006-04-20 08:13:14 51°19.557 2°56.781 70 12.4 65 10.9
2006-04-20 08:13:19 51°19.565 2°56.806 69.6 12.3 65 10.9
2006-04-20 08:13:24 51°19.572 2°56.83 69 12.3 64 10.8
2006-04-20 08:13:30 51°19.582 2°56.859 68.3 12.3 63 10.7
2006-04-20 08:13:34 51°19.588 2°56.879 68.1 12.3 62 10.7
2006-04-20 08:13:39 51°19.596 2°56.903 66.9 12.3 62 10.8
2006-04-20 08:13:44 51°19.604 2°56.927 66.7 12.3 62 10.8
2006-04-20 08:13:49 51°19.612 2°56.951 67.2 12.3 62 10.8
2006-04-20 08:13:54 51°19.62 2°56.975 68.1 12.3 64 10.7
2006-04-20 08:13:59 51°19.627 2°57 69 12.3 64 10.7
2006-04-20 08:14:04 51°19.634 2°57.024 70 12.3 65 10.7
2006-04-20 08:14:09 51°19.641 2°57.049 70.1 12.2 65 10.7
2006-04-20 08:14:14 51°19.648 2°57.073 70.1 12.2 66 10.6
2006-04-20 08:14:19 51°19.656 2°57.098 69.7 12.3 65 10.6
2006-04-20 08:14:24 51°19.663 2°57.123 70 12.3 65 10.7
2006-04-20 08:14:29 51°19.67 2°57.147 70.4 12.3 66 10.8
2006-04-20 08:14:34 51°19.677 2°57.172 70.3 12.3 66 10.7
2006-04-20 08:14:39 51°19.684 2°57.197 70.4 12.3 66 10.8
2006-04-20 08:14:44 51°19.691 2°57.221 70.3 12.3 65 10.8
2006-04-20 08:14:49 51°19.699 2°57.246 69.5 12.3 64 10.7
2006-04-20 08:14:54 51°19.707 2°57.27 68.6 12.3 63 10.8
2006-04-20 08:14:59 51°19.714 2°57.294 68.1 12.2 63 10.6
2006-04-20 08:15:04 51°19.722 2°57.318 67.7 12.2 62 10.7
2006-04-20 08:15:09 51°19.73 2°57.342 67.5 12.2 63 10.6
2006-04-20 08:15:14 51°19.737 2°57.366 67.6 12.2 62 10.5
2006-04-20 08:15:19 51°19.745 2°57.39 67.6 12.3 63 10.6
2006-04-20 08:15:24 51°19.753 2°57.414 67.5 12.2 63 10.6
2006-04-20 08:15:29 51°19.761 2°57.438 67.7 12.2 64 10.6
2006-04-20 08:15:34 51°19.768 2°57.462 68.2 12.3 64 10.6
2006-04-20 08:15:39 51°19.776 2°57.487 68.2 12.2 65 10.5
2006-04-20 08:15:44 51°19.783 2°57.511 69 12.2 64 10.6
2006-04-20 08:15:49 51°19.79 2°57.535 69 12.2 65 10.5
2006-04-20 08:15:54 51°19.797 2°57.56 69.3 12.2 65 10.6
2006-04-20 08:15:59 51°19.805 2°57.585 69.8 12.3 66 10.5
2006-04-20 08:16:04 51°19.812 2°57.609 70.1 12.2 66 10.5
2006-04-20 08:16:10 51°19.82 2°57.639 70.6 12.2 67 10.6
2006-04-20 08:16:14 51°19.825 2°57.659 70.9 12.2 66 10.5
2006-04-20 08:16:19 51°19.832 2°57.684 71.1 12.2 67 10.5
2006-04-20 08:16:24 51°19.839 2°57.709 71.3 12.2 66 10.4
2006-04-20 08:16:29 51°19.846 2°57.733 70.6 12.2 66 10.4
2006-04-20 08:16:34 51°19.853 2°57.758 70.4 12.2 65 10.5
2006-04-20 08:16:39 51°19.86 2°57.782 70 12.2 65 10.5
2006-04-20 08:16:44 51°19.867 2°57.807 69.5 12.2 64 10.5
2006-04-20 08:16:49 51°19.875 2°57.831 69.2 12.3 64 10.4
2006-04-20 08:16:54 51°19.882 2°57.855 69 12.2 64 10.5
2006-04-20 08:16:59 51°19.889 2°57.88 69.3 12.1 65 10.5
2006-04-20 08:17:04 51°19.896 2°57.904 69.9 12.2 64 10.5
2006-04-20 08:17:09 51°19.903 2°57.929 69.6 12.2 66 10.4
2006-04-20 08:17:14 51°19.911 2°57.953 70 12.1 64 10.4
2006-04-20 08:17:19 51°19.917 2°57.977 69.7 12.1 65 10.6
2006-04-20 08:17:24 51°19.925 2°58.001 69 12.2 63 10.5
2006-04-20 08:17:29 51°19.933 2°58.025 68.1 12.2 64 10.4
2006-04-20 08:17:34 51°19.941 2°58.049 68 12.2 62 10.4
2006-04-20 08:17:39 51°19.948 2°58.073 67.7 12.2 63 10.4
2006-04-20 08:17:44 51°19.956 2°58.098 68.5 12.2 64 10.4
2006-04-20 08:17:49 51°19.963 2°58.122 69 12.2 64 10.4
2006-04-20 08:17:54 51°19.97 2°58.146 69.6 12.2 66 10.4
2006-04-20 08:17:59 51°19.977 2°58.171 70.2 12.2 65 10.3
2006-04-20 08:18:04 51°19.985 2°58.195 69.8 12.2 64 10.3
2006-04-20 08:18:09 51°19.992 2°58.22 69.5 12.3 65 10.4
2006-04-20 08:18:14 51°19.999 2°58.244 69.7 12.3 64 10.5
2006-04-20 08:18:19 51°20.006 2°58.269 69.7 12.2 65 10.5
2006-04-20 08:18:24 51°20.013 2°58.293 70.3 12.2 65 10.4
2006-04-20 08:18:29 51°20.02 2°58.318 71 12.2 67 10.4
2006-04-20 08:18:34 51°20.027 2°58.343 71.2 12.2 66 10.4
2006-04-20 08:18:39 51°20.034 2°58.368 71.3 12.2 66 10.4
2006-04-20 08:18:44 51°20.041 2°58.392 71 12.2 66 10.5
2006-04-20 08:18:49 51°20.048 2°58.417 70.4 12.3 65 10.4
2006-04-20 08:18:54 51°20.055 2°58.441 69.5 12.2 64 10.4
2006-04-20 08:19:00 51°20.064 2°58.47 69.1 12.2 64 10.4
2006-04-20 08:19:04 51°20.07 2°58.49 68.9 12.2 63 10.3
2006-04-20 08:19:09 51°20.078 2°58.514 68.8 12.3 64 10.3
2006-04-20 08:19:14 51°20.086 2°58.539 68.7 12.4 63 10.4
2006-04-20 08:19:19 51°20.094 2°58.563 68.1 12.3 63 10.4
2006-04-20 08:19:24 51°20.101 2°58.587 68 12.2 63 10.4
2006-04-20 08:19:29 51°20.109 2°58.611 68.2 12.3 64 10.4
2006-04-20 08:19:34 51°20.117 2°58.635 68.9 12.3 63 10.4
2006-04-20 08:19:39 51°20.124 2°58.66 68.6 12.3 64 10.4
2006-04-20 08:19:44 51°20.132 2°58.684 68.9 12.3 64 10.4
2006-04-20 08:19:49 51°20.139 2°58.709 69.2 12.3 64 10.5
2006-04-20 08:19:54 51°20.146 2°58.733 69.5 12.3 65 10.3
2006-04-20 08:19:59 51°20.153 2°58.758 69.6 12.2 64 10.3
2006-04-20 08:20:04 51°20.16 2°58.782 70.3 12.2 65 10.4
2006-04-20 08:20:09 51°20.167 2°58.807 70.8 12.3 66 10.4
2006-04-20 08:20:14 51°20.175 2°58.831 71 12.2 65 10.5
2006-04-20 08:20:19 51°20.181 2°58.856 70.5 12.1 65 10.4
2006-04-20 08:20:24 51°20.189 2°58.88 69.9 12.2 63 10.3
2006-04-20 08:20:29 51°20.197 2°58.904 69.3 12.2 63 10.4
2006-04-20 08:20:34 51°20.205 2°58.928 69.2 12.2 63 10.4
2006-04-20 08:20:39 51°20.213 2°58.952 68.8 12.2 63 10.4
2006-04-20 08:20:44 51°20.22 2°58.976 68.4 12.2 63 10.3
2006-04-20 08:20:49 51°20.228 2°59 68.2 12.2 61 10.4
2006-04-20 08:20:54 51°20.236 2°59.024 68.2 12.3 63 10.3
2006-04-20 08:20:59 51°20.244 2°59.049 68.2 12.3 62 10.4
2006-04-20 08:21:04 51°20.251 2°59.073 68.7 12.2 64 10.4
2006-04-20 08:21:09 51°20.259 2°59.097 69.8 12.3 64 10.4
2006-04-20 08:21:14 51°20.266 2°59.122 70.2 12.2 64 10.4
2006-04-20 08:21:19 51°20.274 2°59.146 69.7 12.2 64 10.5
2006-04-20 08:21:24 51°20.281 2°59.17 69.7 12.2 64 10.5
2006-04-20 08:21:29 51°20.289 2°59.195 69.1 12.2 63 10.5
2006-04-20 08:21:34 51°20.296 2°59.219 69.2 12.2 64 10.4
2006-04-20 08:21:39 51°20.304 2°59.243 69.8 12.2 64 10.4
2006-04-20 08:21:44 51°20.312 2°59.268 69.7 12.2 64 10.4
2006-04-20 08:21:49 51°20.319 2°59.292 69.1 12.2 65 10.4
2006-04-20 08:21:54 51°20.326 2°59.316 70.3 12.2 64 10.4
2006-04-20 08:21:59 51°20.334 2°59.34 70.3 12.3 64 10.5
2006-04-20 08:22:04 51°20.342 2°59.365 69.6 12.3 64 10.4
2006-04-20 08:22:09 51°20.349 2°59.39 70.7 12.3 65 10.4
2006-04-20 08:22:14 51°20.356 2°59.414 70.9 12.3 64 10.4
2006-04-20 08:22:19 51°20.364 2°59.439 70.4 12.3 63 10.3
2006-04-20 08:22:24 51°20.372 2°59.463 70.5 12.3 64 10.4
2006-04-20 08:22:29 51°20.379 2°59.488 70.6 12.4 64 10.4
2006-04-20 08:22:34 51°20.387 2°59.513 70.4 12.4 64 10.5
2006-04-20 08:22:39 51°20.394 2°59.538 71.1 12.4 66 10.4
2006-04-20 08:22:44 51°20.401 2°59.562 71.3 12.5 64 10.4
2006-04-20 08:22:49 51°20.408 2°59.587 70.7 12.3 65 10.3
2006-04-20 08:22:54 51°20.416 2°59.612 71.1 12.4 65 10.4
2006-04-20 08:22:59 51°20.424 2°59.636 70.6 12.4 62 10.4
2006-04-20 08:23:04 51°20.432 2°59.661 69.5 12.5 62 10.4
2006-04-20 08:23:09 51°20.44 2°59.685 68.8 12.4 62 10.3
2006-04-20 08:23:14 51°20.448 2°59.709 68.2 12.4 61 10.4
2006-04-20 08:23:20 51°20.458 2°59.739 68.4 12.4 63 10.3
2006-04-20 08:23:24 51°20.464 2°59.758 69 12.4 63 10.4
2006-04-20 08:23:29 51°20.472 2°59.783 69.6 12.4 64 10.4
2006-04-20 08:23:34 51°20.479 2°59.807 70.4 12.5 63 10.4
2006-04-20 08:23:39 51°20.487 2°59.832 70.4 12.4 64 10.4
2006-04-20 08:23:44 51°20.494 2°59.857 70.6 12.4 64 10.4
2006-04-20 08:23:49 51°20.502 2°59.882 70.4 12.4 65 10.4
2006-04-20 08:23:54 51°20.51 2°59.906 70.6 12.4 63 10.4
2006-04-20 08:23:59 51°20.517 2°59.931 70.8 12.4 64 10.4
2006-04-20 08:24:04 51°20.525 2°59.955 70.4 12.5 63 10.4
2006-04-20 08:24:09 51°20.533 2°59.979 69.2 12.4 61 10.4
2006-04-20 08:24:14 51°20.541 3°0.004 68.4 12.5 62 10.4
2006-04-20 08:24:19 51°20.55 3°0.028 68.6 12.5 62 10.4
2006-04-20 08:24:24 51°20.558 3°0.052 68.3 12.5 61 10.4
2006-04-20 08:24:29 51°20.567 3°0.076 67.7 12.4 60 10.4
2006-04-20 08:24:34 51°20.575 3°0.1 67.4 12.4 61 10.5
2006-04-20 08:24:39 51°20.583 3°0.125 68 12.5 62 10.5
2006-04-20 08:24:44 51°20.591 3°0.149 68.8 12.5 62 10.5
2006-04-20 08:24:48 51°20.598 3°0.169 69 12.4 63 10.5
2006-04-20 08:24:54 51°20.607 3°0.198 69.4 12.4 62 10.5
2006-04-20 08:24:59 51°20.615 3°0.222 69.1 12.4 61 10.5
2006-04-20 08:25:04 51°20.623 3°0.246 68.4 12.3 62 10.4
2006-04-20 08:25:09 51°20.631 3°0.27 68.7 12.4 62 10.5
2006-04-20 08:25:14 51°20.639 3°0.294 68.9 12.4 62 10.4
2006-04-20 08:25:19 51°20.647 3°0.319 68.9 12.3 63 10.5
2006-04-20 08:25:24 51°20.655 3°0.343 69.8 12.3 63 10.5
2006-04-20 08:25:29 51°20.663 3°0.368 69.9 12.4 63 10.5
2006-04-20 08:25:34 51°20.67 3°0.392 70 12.4 63 10.5
2006-04-20 08:25:38 51°20.677 3°0.411 69.6 12.4 62 10.4
2006-04-20 08:25:44 51°20.686 3°0.441 69.2 12.3 62 10.5
2006-04-20 08:25:49 51°20.694 3°0.465 69.4 12.4 63 10.5
2006-04-20 08:25:54 51°20.702 3°0.489 70 12.3 63 10.5
2006-04-20 08:25:59 51°20.709 3°0.514 70 12.3 64 10.5
2006-04-20 08:26:04 51°20.717 3°0.539 70.6 12.3 65 10.6
2006-04-20 08:26:09 51°20.724 3°0.563 71 12.3 65 10.5
2006-04-20 08:26:14 51°20.732 3°0.588 70.6 12.3 63 10.5
2006-04-20 08:26:19 51°20.739 3°0.612 70.2 12.3 64 10.5
2006-04-20 08:26:24 51°20.747 3°0.637 70.3 12.3 63 10.5
2006-04-20 08:26:29 51°20.755 3°0.661 69.5 12.4 62 10.5
2006-04-20 08:26:34 51°20.763 3°0.685 68.4 12.3 61 10.6
2006-04-20 08:26:39 51°20.771 3°0.709 68.7 12.3 63 10.5
2006-04-20 08:26:44 51°20.78 3°0.733 68.3 12.4 61 10.6
2006-04-20 08:26:49 51°20.788 3°0.757 67.4 12.4 60 10.6
2006-04-20 08:26:54 51°20.796 3°0.781 67.3 12.4 61 10.5
2006-04-20 08:26:59 51°20.805 3°0.805 67.5 12.4 60 10.6
2006-04-20 08:27:04 51°20.814 3°0.828 66.9 12.4 60 10.6
2006-04-20 08:27:09 51°20.823 3°0.852 65.6 12.4 58 10.6
2006-04-20 08:27:14 51°20.832 3°0.874 64.5 12.4 58 10.6
2006-04-20 08:27:19 51°20.841 3°0.897 63.6 12.4 56 10.6
2006-04-20 08:27:24 51°20.851 3°0.92 62.9 12.4 56 10.6
2006-04-20 08:27:29 51°20.86 3°0.943 63.2 12.4 56 10.5
2006-04-20 08:27:34 51°20.87 3°0.966 63.4 12.5 57 10.6
2006-04-20 08:27:39 51°20.879 3°0.99 63.8 12.4 58 10.6
2006-04-20 08:27:44 51°20.888 3°1.014 65.4 12.5 59 10.6
2006-04-20 08:27:49 51°20.897 3°1.037 66 12.4 59 10.6
2006-04-20 08:27:54 51°20.906 3°1.061 66 12.4 59 10.6
2006-04-20 08:27:59 51°20.915 3°1.084 65.3 12.4 58 10.6
2006-04-20 08:28:04 51°20.924 3°1.107 65.1 12.4 59 10.6
2006-04-20 08:28:09 51°20.932 3°1.131 65 12.4 59 10.6
2006-04-20 08:28:14 51°20.941 3°1.155 65.2 12.3 59 10.6
2006-04-20 08:28:19 51°20.949 3°1.178 65.9 12.3 61 10.6
2006-04-20 08:28:24 51°20.958 3°1.202 66.7 12.2 61 10.6
2006-04-20 08:28:29 51°20.966 3°1.226 67.4 12.2 62 10.6
2006-04-20 08:28:34 51°20.974 3°1.25 68.2 12.1 62 10.6
2006-04-20 08:28:39 51°20.981 3°1.274 68.4 12.2 63 10.6
2006-04-20 08:28:44 51°20.989 3°1.298 68.6 12.2 63 10.6
2006-04-20 08:28:49 51°20.997 3°1.322 69 12.1 63 10.7
2006-04-20 08:28:54 51°21.004 3°1.345 69.4 12 63 10.7
2006-04-20 08:28:59 51°21.013 3°1.369 67.5 12 61 10.7
2006-04-20 08:29:04 51°21.022 3°1.391 65 12.2 57 10.7
2006-04-20 08:29:09 51°21.031 3°1.414 63.9 12.1 58 10.7
2006-04-20 08:29:14 51°21.039 3°1.436 63.6 12.1 57 10.7
2006-04-20 08:29:19 51°21.048 3°1.459 63.8 12 58 10.7
2006-04-20 08:29:24 51°21.057 3°1.482 65.1 12.1 59 10.7
2006-04-20 08:29:29 51°21.066 3°1.504 64.7 12.1 57 10.7
2006-04-20 08:29:34 51°21.075 3°1.527 64.5 12.1 59 10.7
2006-04-20 08:29:39 51°21.084 3°1.549 63.6 12.1 55 10.7
2006-04-20 08:29:44 51°21.094 3°1.571 62.6 12.1 57 10.7
2006-04-20 08:29:49 51°21.104 3°1.593 61.6 12.2 53 10.8
2006-04-20 08:29:54 51°21.114 3°1.616 61 12.2 55 10.7
2006-04-20 08:30:00 51°21.126 3°1.642 61.9 12.2 55 10.8
2006-04-20 08:30:04 51°21.133 3°1.66 61.6 12.2 56 10.8
2006-04-20 08:30:09 51°21.142 3°1.683 63.5 12.2 57 10.7
2006-04-20 08:30:14 51°21.151 3°1.705 63.8 12.2 56 10.7
2006-04-20 08:30:19 51°21.162 3°1.727 61.8 12.2 53 10.8
2006-04-20 08:30:24 51°21.172 3°1.749 60.1 12.2 53 10.8
2006-04-20 08:30:29 51°21.183 3°1.77 59 12.2 52 10.8
2006-04-20 08:30:34 51°21.193 3°1.791 59.3 12.2 53 10.8
2006-04-20 08:30:39 51°21.202 3°1.813 60.3 12.1 54 10.9
2006-04-20 08:30:44 51°21.213 3°1.835 60.9 12.2 53 10.9
2006-04-20 08:30:49 51°21.222 3°1.857 61 12.2 55 10.8
2006-04-20 08:30:54 51°21.233 3°1.879 61.1 12.2 54 10.8
2006-04-20 08:30:59 51°21.242 3°1.901 60.9 12.2 54 10.9
2006-04-20 08:31:04 51°21.252 3°1.923 61.8 12.2 56 10.9
2006-04-20 08:31:10 51°21.263 3°1.95 62.2 12.2 54 10.9
2006-04-20 08:31:14 51°21.271 3°1.967 62 12.2 55 10.9
2006-04-20 08:31:19 51°21.281 3°1.989 61.4 12.2 54 11
2006-04-20 08:31:24 51°21.291 3°2.012 61.4 12.3 55 10.9
2006-04-20 08:31:30 51°21.303 3°2.038 61.3 12.2 53 11
2006-04-20 08:31:34 51°21.311 3°2.055 60.6 12.2 54 11
2006-04-20 08:31:39 51°21.321 3°2.077 60.6 12.2 53 11
2006-04-20 08:31:44 51°21.331 3°2.099 60.6 12.2 54 11
2006-04-20 08:31:49 51°21.341 3°2.121 60.7 12.3 54 11
2006-04-20 08:31:54 51°21.351 3°2.143 61.1 12.2 55 11.1
2006-04-20 08:31:59 51°21.361 3°2.165 61 12.2 53 11
2006-04-20 08:32:04 51°21.37 3°2.187 60.5 12.2 56 11
2006-04-20 08:32:09 51°21.38 3°2.21 62.6 12.2 55 11
2006-04-20 08:32:14 51°21.389 3°2.232 62.6 12.2 56 11
2006-04-20 08:32:19 51°21.399 3°2.254 62.3 12.2 55 11
2006-04-20 08:32:24 51°21.408 3°2.277 62.5 12.2 56 11
2006-04-20 08:32:29 51°21.418 3°2.299 61.7 12.2 54 11.1
2006-04-20 08:32:34 51°21.428 3°2.322 62.4 12.2 57 11
2006-04-20 08:32:39 51°21.437 3°2.345 63.8 12.2 57 11.1
2006-04-20 08:32:44 51°21.446 3°2.368 64.1 12.3 58 11.1
2006-04-20 08:32:49 51°21.456 3°2.39 63.5 12.2 55 11.1
2006-04-20 08:32:54 51°21.465 3°2.412 62.3 12.2 56 11.1
2006-04-20 08:32:59 51°21.475 3°2.435 62.1 12.2 55 11.2
2006-04-20 08:33:04 51°21.484 3°2.457 62.4 12.2 56 11.2
2006-04-20 08:33:09 51°21.494 3°2.48 63.1 12.3 56 11.2
2006-04-20 08:33:14 51°21.503 3°2.502 62.8 12.3 57 11.2
2006-04-20 08:33:19 51°21.512 3°2.525 63.5 12.2 57 11.1
2006-04-20 08:33:24 51°21.522 3°2.547 63.8 12.3 56 11.2
2006-04-20 08:33:29 51°21.531 3°2.57 63.1 12.3 55 11.2
2006-04-20 08:33:34 51°21.54 3°2.593 63.2 12.2 58 11.2
2006-04-20 08:33:39 51°21.549 3°2.616 63.8 12.3 57 11.2
2006-04-20 08:33:44 51°21.557 3°2.64 65.5 12.2 61 11.2
2006-04-20 08:33:49 51°21.564 3°2.664 69 12.2 66 11.2
2006-04-20 08:33:54 51°21.57 3°2.689 72.8 12.1 68 11.2
2006-04-20 08:33:59 51°21.575 3°2.714 75.4 12.1 71 11.2
2006-04-20 08:34:04 51°21.58 3°2.74 76.5 12.1 72 11.3
2006-04-20 08:34:10 51°21.585 3°2.771 79 12 76 11.3
2006-04-20 08:34:14 51°21.587 3°2.792 81.9 12 77 11.3
2006-04-20 08:34:19 51°21.591 3°2.818 83.3 12 79 11.3
2006-04-20 08:34:24 51°21.594 3°2.844 83.4 12 78 11.3
2006-04-20 08:34:29 51°21.597 3°2.87 84 12 80 11.3
2006-04-20 08:34:34 51°21.599 3°2.896 85 12.1 80 11.3
2006-04-20 08:34:39 51°21.601 3°2.923 85.9 12 83 11.3
2006-04-20 08:34:44 51°21.605 3°2.949 86.3 12 81 11.3
2006-04-20 08:34:49 51°21.608 3°2.975 84.8 12 78 11.3
2006-04-20 08:34:54 51°21.612 3°3 83 12 76 11.3
2006-04-20 08:34:59 51°21.618 3°3.025 78.8 11.9 71 11.2
2006-04-20 08:35:04 51°21.624 3°3.05 76 11.9 68 11.3
2006-04-20 08:35:09 51°21.631 3°3.074 73.4 12 66 11.3
2006-04-20 08:35:14 51°21.638 3°3.098 71.8 11.9 65 11.3
2006-04-20 08:35:19 51°21.645 3°3.122 70.6 12 64 11.3
2006-04-20 08:35:24 51°21.652 3°3.146 70.2 12.1 65 11.3
2006-04-20 08:35:29 51°21.658 3°3.171 72.2 11.9 69 11.3
2006-04-20 08:35:34 51°21.663 3°3.196 75 11.9 70 11.3
2006-04-20 08:35:39 51°21.669 3°3.221 76.4 12 70 11.4
2006-04-20 08:35:44 51°21.674 3°3.246 75.8 11.9 70 11.3
2006-04-20 08:35:49 51°21.68 3°3.271 76.5 12 71 11.3
2006-04-20 08:35:54 51°21.685 3°3.297 76.8 12.1 72 11.3
2006-04-20 08:35:59 51°21.69 3°3.322 77.3 12.1 71 11.3
2006-04-20 08:36:04 51°21.696 3°3.347 76.4 12.1 71 11.3
2006-04-20 08:36:09 51°21.702 3°3.372 75.6 12.1 68 11.4
2006-04-20 08:36:14 51°21.708 3°3.397 75.1 12.1 70 11.4
2006-04-20 08:36:19 51°21.714 3°3.422 74.8 12.1 68 11.3
2006-04-20 08:36:25 51°21.721 3°3.452 74 12.1 68 11.4
2006-04-20 08:36:29 51°21.726 3°3.472 74 12.1 69 11.4
2006-04-20 08:36:34 51°21.731 3°3.497 75 12.1 71 11.4
2006-04-20 08:36:39 51°21.737 3°3.523 76.2 12.1 71 11.3
2006-04-20 08:36:44 51°21.742 3°3.548 76.6 12.1 72 11.3
2006-04-20 08:36:49 51°21.747 3°3.573 77.6 12 73 11.3
2006-04-20 08:36:54 51°21.752 3°3.599 77.7 12 72 11.3
2006-04-20 08:36:59 51°21.757 3°3.624 78.2 12 73 11.3
2006-04-20 08:37:04 51°21.761 3°3.65 78.7 12.1 74 11.3
2006-04-20 08:37:09 51°21.766 3°3.676 79.2 12.1 74 11.3
2006-04-20 08:37:14 51°21.771 3°3.702 78.6 12 73 11.4
2006-04-20 08:37:19 51°21.775 3°3.727 78.7 12.1 73 11.3
2006-04-20 08:37:24 51°21.781 3°3.753 78.3 12.1 72 11.3
2006-04-20 08:37:29 51°21.786 3°3.778 77.4 12.1 72 11.4
2006-04-20 08:37:34 51°21.791 3°3.804 76.9 12.1 71 11.4
2006-04-20 08:37:39 51°21.796 3°3.829 76.4 12.1 72 11.4
2006-04-20 08:37:44 51°21.801 3°3.854 77.1 12.1 72 11.4
2006-04-20 08:37:49 51°21.806 3°3.88 77.8 12.1 74 11.4
2006-04-20 08:37:54 51°21.811 3°3.906 78.8 12.1 74 11.4
2006-04-20 08:37:59 51°21.816 3°3.931 78.6 12.1 73 11.5
2006-04-20 08:38:04 51°21.821 3°3.957 77.9 12 73 11.4
2006-04-20 08:38:10 51°21.827 3°3.988 78.4 12.1 72 11.4
2006-04-20 08:38:14 51°21.831 3°4.008 77.8 12.1 72 11.4
2006-04-20 08:38:19 51°21.836 3°4.034 77.6 12.1 72 11.4
2006-04-20 08:38:24 51°21.841 3°4.059 76.9 12.1 72 11.4
2006-04-20 08:38:29 51°21.846 3°4.085 76.9 12.1 72 11.4
2006-04-20 08:38:34 51°21.852 3°4.11 76.9 12.2 71 11.5
2006-04-20 08:38:39 51°21.857 3°4.136 76.7 12.1 72 11.4
2006-04-20 08:38:44 51°21.863 3°4.161 76.7 12.1 72 11.4
2006-04-20 08:38:50 51°21.868 3°4.192 77.4 12.1 74 11.5
2006-04-20 08:38:54 51°21.872 3°4.212 78.5 12.1 74 11.4
2006-04-20 08:38:59 51°21.876 3°4.238 79.1 12.1 74 11.4
2006-04-20 08:39:04 51°21.881 3°4.264 78.9 12.1 73 11.4
2006-04-20 08:39:10 51°21.887 3°4.295 78.6 12 74 11.5
2006-04-20 08:39:14 51°21.89 3°4.315 79.3 12 75 11.4
2006-04-20 08:39:19 51°21.895 3°4.341 79.5 12.1 74 11.4
2006-04-20 08:39:24 51°21.9 3°4.367 78.8 12 73 11.5
2006-04-20 08:39:29 51°21.904 3°4.392 79.1 12 75 11.4
2006-04-20 08:39:34 51°21.909 3°4.418 78.8 12.1 73 11.4
2006-04-20 08:39:39 51°21.914 3°4.444 78.6 12.1 74 11.5
2006-04-20 08:39:44 51°21.919 3°4.469 78.6 12.1 73 11.5
2006-04-20 08:39:49 51°21.923 3°4.495 78.3 12 74 11.5
2006-04-20 08:39:54 51°21.928 3°4.521 78.3 12.1 73 11.5
2006-04-20 08:39:59 51°21.933 3°4.546 78.4 12.1 74 11.5
2006-04-20 08:40:04 51°21.938 3°4.572 78.6 12.1 74 11.5
2006-04-20 08:40:09 51°21.942 3°4.598 79.4 12 75 11.5
2006-04-20 08:40:14 51°21.946 3°4.624 80.3 12.1 76 11.6
2006-04-20 08:40:20 51°21.951 3°4.655 80.7 12.1 76 11.5
2006-04-20 08:40:24 51°21.954 3°4.676 80.7 12.1 75 11.6
2006-04-20 08:40:29 51°21.958 3°4.702 80.7 12.1 76 11.6
2006-04-20 08:40:34 51°21.963 3°4.728 80.2 12.1 75 11.5
2006-04-20 08:40:39 51°21.968 3°4.753 79.7 12.1 74 11.6
2006-04-20 08:40:44 51°21.972 3°4.779 79.2 12 74 11.5
2006-04-20 08:40:49 51°21.977 3°4.804 79.2 12 74 11.6
2006-04-20 08:40:54 51°21.981 3°4.83 79.5 12.1 76 11.6
2006-04-20 08:40:59 51°21.985 3°4.856 80.2 12.1 75 11.6
2006-04-20 08:41:04 51°21.989 3°4.882 81.1 12 77 11.6
2006-04-20 08:41:09 51°21.993 3°4.908 81.4 12 76 11.6
2006-04-20 08:41:14 51°21.996 3°4.934 81.7 11.9 78 11.6
2006-04-20 08:41:19 51°22 3°4.96 82.1 12.1 77 11.5
2006-04-20 08:41:24 51°22.003 3°4.986 82.3 12 78 11.7
2006-04-20 08:41:29 51°22.007 3°5.012 82.4 12 77 11.6
2006-04-20 08:41:34 51°22.011 3°5.038 82 12 77 11.7
2006-04-20 08:41:39 51°22.015 3°5.064 80.9 12 75 11.6
2006-04-20 08:41:44 51°22.02 3°5.089 79.8 12 74 11.6
2006-04-20 08:41:49 51°22.025 3°5.115 79.4 12 75 11.6
2006-04-20 08:41:54 51°22.03 3°5.141 79.4 12 74 11.7
2006-04-20 08:41:59 51°22.034 3°5.166 79 12 75 11.7
2006-04-20 08:42:04 51°22.039 3°5.192 79.1 12 74 11.6
2006-04-20 08:42:09 51°22.043 3°5.218 78.9 12 75 11.6
2006-04-20 08:42:14 51°22.048 3°5.243 79.3 12 74 11.6
2006-04-20 08:42:19 51°22.052 3°5.269 79.7 12 76 11.7
2006-04-20 08:42:24 51°22.056 3°5.295 80 12 75 11.7
2006-04-20 08:42:29 51°22.059 3°5.321 80.7 11.9 78 11.7
2006-04-20 08:42:34 51°22.063 3°5.346 81.4 11.9 76 11.7
2006-04-20 08:42:40 51°22.068 3°5.377 81.4 11.9 77 11.7
2006-04-20 08:42:44 51°22.071 3°5.398 81.1 12 76 11.7
2006-04-20 08:42:49 51°22.075 3°5.423 80.6 11.9 75 11.8
2006-04-20 08:42:54 51°22.08 3°5.449 80.1 11.9 74 11.6
2006-04-20 08:42:59 51°22.084 3°5.475 79.6 11.9 74 11.6
2006-04-20 08:43:04 51°22.088 3°5.5 79.2 12 75 11.7
2006-04-20 08:43:09 51°22.093 3°5.526 78.7 12 73 11.7
2006-04-20 08:43:14 51°22.098 3°5.551 78.5 12 74 11.9
2006-04-20 08:43:19 51°22.103 3°5.577 78.7 12.1 73 11.7
2006-04-20 08:43:24 51°22.107 3°5.602 78.5 12 74 11.7
2006-04-20 08:43:30 51°22.113 3°5.633 79 12.1 74 11.9
2006-04-20 08:43:34 51°22.117 3°5.654 79.1 12.1 74 11.7
2006-04-20 08:43:39 51°22.121 3°5.679 79 12 74 11.9
2006-04-20 08:43:44 51°22.125 3°5.705 79.4 12 75 11.9
2006-04-20 08:43:50 51°22.13 3°5.736 79.9 12 76 11.8
2006-04-20 08:43:54 51°22.134 3°5.757 80.5 12 76 11.7
2006-04-20 08:44:00 51°22.138 3°5.787 80.9 12 76 11.8
2006-04-20 08:44:04 51°22.141 3°5.808 81.4 11.9 77 11.9
2006-04-20 08:44:09 51°22.145 3°5.834 81.5 11.9 77 11.7
2006-04-20 08:44:14 51°22.148 3°5.86 81.9 12 78 11.9
2006-04-20 08:44:19 51°22.152 3°5.885 81.9 11.9 78 11.8
2006-04-20 08:44:24 51°22.155 3°5.911 82.7 11.9 79 11.9
2006-04-20 08:44:29 51°22.159 3°5.937 82.7 11.9 78 11.7
2006-04-20 08:44:34 51°22.162 3°5.963 82.5 11.9 77 11.9
2006-04-20 08:44:39 51°22.166 3°5.988 81.6 11.9 76 11.7
2006-04-20 08:44:44 51°22.171 3°6.013 80.3 11.8 75 11.7
2006-04-20 08:44:49 51°22.175 3°6.039 79.9 11.8 76 11.7
2006-04-20 08:44:54 51°22.179 3°6.064 79.6 11.8 74 11.9
2006-04-20 08:44:59 51°22.183 3°6.09 79.7 11.8 76 11.8
2006-04-20 08:45:04 51°22.187 3°6.115 79.9 11.9 75 11.8
2006-04-20 08:45:09 51°22.191 3°6.141 81.4 11.8 78 11.8
2006-04-20 08:45:14 51°22.194 3°6.166 82 11.8 77 11.8
2006-04-20 08:45:19 51°22.197 3°6.192 82.4 11.8 79 11.8
2006-04-20 08:45:24 51°22.201 3°6.218 82.6 11.9 78 11.9
2006-04-20 08:45:29 51°22.204 3°6.243 82.8 11.8 79 11.9
2006-04-20 08:45:34 51°22.207 3°6.269 82.8 11.8 79 11.9
2006-04-20 08:45:39 51°22.211 3°6.295 83.1 11.8 78 11.9
2006-04-20 08:45:44 51°22.214 3°6.321 82.8 11.8 78 11.9
2006-04-20 08:45:49 51°22.217 3°6.346 82.9 11.9 79 11.9
2006-04-20 08:45:54 51°22.221 3°6.372 82.7 11.9 78 12
2006-04-20 08:45:59 51°22.224 3°6.398 82.7 11.8 79 11.9
2006-04-20 08:46:04 51°22.227 3°6.423 82.7 11.8 78 11.9
2006-04-20 08:46:09 51°22.23 3°6.449 82.7 11.8 79 12
2006-04-20 08:46:14 51°22.234 3°6.474 82.7 11.7 78 11.9
2006-04-20 08:46:19 51°22.237 3°6.5 82.9 11.8 79 12
2006-04-20 08:46:24 51°22.24 3°6.525 82.9 11.7 79 12
2006-04-20 08:46:29 51°22.243 3°6.551 82.7 11.7 78 12
2006-04-20 08:46:34 51°22.247 3°6.576 82.7 11.8 78 11.9
2006-04-20 08:46:39 51°22.25 3°6.602 82.2 11.7 77 11.9
2006-04-20 08:46:44 51°22.253 3°6.627 81.9 11.7 78 11.9
2006-04-20 08:46:49 51°22.257 3°6.653 81.7 11.7 77 11.9
2006-04-20 08:46:54 51°22.26 3°6.678 81.8 11.7 79 12
2006-04-20 08:46:59 51°22.264 3°6.703 82.4 11.7 78 11.9
2006-04-20 08:47:04 51°22.266 3°6.729 82.7 11.7 79 12
2006-04-20 08:47:10 51°22.27 3°6.759 83.5 11.7 80 12
2006-04-20 08:47:14 51°22.272 3°6.78 83.4 11.7 80 12
2006-04-20 08:47:19 51°22.276 3°6.805 83.4 11.7 79 12
2006-04-20 08:47:24 51°22.279 3°6.83 82.9 11.6 79 12.1
2006-04-20 08:47:29 51°22.282 3°6.856 82.9 11.7 79 12
2006-04-20 08:47:34 51°22.285 3°6.881 82.8 11.8 79 12
2006-04-20 08:47:39 51°22.289 3°6.907 82.4 11.8 78 11.9
2006-04-20 08:47:44 51°22.292 3°6.932 82.4 11.7 78 11.9
2006-04-20 08:47:49 51°22.295 3°6.958 82.5 11.8 79 11.8
2006-04-20 08:47:54 51°22.299 3°6.983 82.5 11.8 77 12
2006-04-20 08:47:59 51°22.302 3°7.009 82.4 11.8 78 12.1
2006-04-20 08:48:04 51°22.306 3°7.034 81.9 11.7 77 12.2
2006-04-20 08:48:09 51°22.309 3°7.06 81.2 11.8 78 12.1
2006-04-20 08:48:14 51°22.313 3°7.085 81.3 11.8 77 11.9
2006-04-20 08:48:19 51°22.317 3°7.111 81.4 11.7 77 11.9
2006-04-20 08:48:24 51°22.32 3°7.136 81.7 11.8 78 11.9
2006-04-20 08:48:29 51°22.324 3°7.162 81.6 11.8 77 12
2006-04-20 08:48:34 51°22.327 3°7.187 81.5 11.7 78 12
2006-04-20 08:48:39 51°22.331 3°7.212 81.4 11.8 77 12
2006-04-20 08:48:44 51°22.335 3°7.238 81.2 11.7 78 12
2006-04-20 08:48:49 51°22.338 3°7.263 81.3 11.8 77 12
2006-04-20 08:48:54 51°22.342 3°7.289 81.9 11.8 79 12
2006-04-20 08:48:59 51°22.345 3°7.315 82.5 11.8 79 12
2006-04-20 08:49:04 51°22.348 3°7.34 83.1 11.7 80 12.1
2006-04-20 08:49:09 51°22.351 3°7.366 83.5 11.7 80 12